SVMG/PMV METAR and TAF weather

Enter ICAO airport designator
Station Type Date Time Source
SVMG METAR 2022/01/23 11:03 UTC NOAA

SVMG 231103Z AUTO 12007KT NCD 24/23 Q1013


Station Type Date Time Source
SVMG Decoded METAR 2022/01/23 11:03 UTC NOAA

Margarita / Del Carib, Venezuela (SVMG) 10-55N 063-59W
Jan 23, 2022 - 06:03 AM EST / 2022.01.23 1103 UTC
Wind: from the ESE (120 degrees) at 8 MPH (7 KT):0
Temperature: 75 F (24 C)
Dew Point: 73 F (23 C)
Relative Humidity: 94%
Pressure (altimeter): 29.91 in. Hg (1013 hPa)
ob: SVMG 231103Z AUTO 12007KT NCD 24/23 Q1013
cycle: 11

Station Type Date Time Source
SVMG TAF 2022/01/23 12:58 UTC NOAA

TAF SVMG 231000Z 2312/2412 07003KT 9999 FEW010 TX32/2318Z TN22/2408Z
BECMG 2316/2322 09013KT SCT010 SCT080
FM232300 08008KT 9999 FEW010

Example: see airport list